Time;durP1;ratioP1;P1;durP2;ratioP2;P2;SDS_P1;SDS_P2;PMS_P1;PMS_P2;Temp;Humidity;BMP_temperature;BMP_pressure;BME280_temperature;BME280_humidity;BME280_pressure;Samples;Min_cycle;Max_cycle;Signal;HPM_P1;HPM_P2
2022/12/15 00:39:11;;;;;;;1999.90;999.90;;;-4.40;1.00;;;;;;5053072;28;20175;-68
2022/12/15 00:41:36;;;;;;;1999.90;999.90;;;-4.50;1.00;;;;;;5053011;28;20199;-68
2022/12/15 00:44:02;;;;;;;1999.90;999.90;;;-4.50;27.20;;;;;;5052983;28;20172;-68
2022/12/15 01:22:00;;;;;;;1999.90;999.90;;;-4.80;99.90;;;;;;5054285;28;20199;-67
2022/12/15 01:24:26;;;;;;;1999.90;999.90;;;-4.70;99.90;;;;;;5053936;28;20551;-67
2022/12/15 01:26:51;;;;;;;1999.90;999.90;;;-4.70;99.90;;;;;;5053861;28;20207;-67
2022/12/15 01:29:17;;;;;;;1999.90;999.90;;;-4.60;99.90;;;;;;5053651;28;20230;-67
2022/12/15 01:31:42;;;;;;;1999.90;999.90;;;-4.60;99.90;;;;;;5053590;28;20228;-67
2022/12/15 01:34:08;;;;;;;1999.90;999.90;;;-4.60;99.90;;;;;;5053722;28;20164;-67
2022/12/15 01:36:34;;;;;;;1999.90;999.90;;;-4.70;99.90;;;;;;5053528;28;20262;-67
2022/12/15 01:39:00;;;;;;;1999.90;999.90;;;-4.70;99.90;;;;;;5053164;28;20406;-67
2022/12/15 01:41:26;;;;;;;1999.90;999.90;;;-4.80;85.10;;;;;;5053444;28;20619;-67
2022/12/15 01:43:52;;;;;;;1999.90;999.90;;;-4.90;45.50;;;;;;5053358;28;20229;-67
2022/12/15 01:46:20;;;;;;;1999.90;999.90;;;-4.80;73.00;;;;;;5053656;28;20175;-67
2022/12/15 01:48:57;;;;;;;1999.90;999.90;;;-4.80;63.10;;;;;;5053332;28;20196;-67
2022/12/15 01:51:30;;;;;;;1999.90;999.90;;;-4.80;32.50;;;;;;5052966;28;20309;-67
2022/12/15 01:54:24;;;;;;;1999.90;999.90;;;-4.80;1.00;;;;;;5052823;28;20202;-68
2022/12/15 01:56:53;;;;;;;1999.90;999.90;;;-4.90;1.00;;;;;;5052674;28;20251;-67
2022/12/15 01:59:27;;;;;;;1999.90;999.90;;;-4.90;1.00;;;;;;5052770;28;20175;-67
2022/12/15 02:01:53;;;;;;;1999.90;999.90;;;-5.00;1.00;;;;;;5052890;28;20218;-67
2022/12/15 02:04:20;;;;;;;1999.90;999.90;;;-4.90;33.30;;;;;;5052793;28;20167;-67
2022/12/15 02:06:46;;;;;;;1999.90;999.90;;;-5.00;19.80;;;;;;5051566;28;20229;-67
2022/12/15 02:09:12;;;;;;;1999.90;999.90;;;-5.00;49.30;;;;;;5051430;28;20207;-67
2022/12/15 02:11:54;;;;;;;1999.90;999.90;;;-5.00;59.60;;;;;;5051560;28;20533;-67
2022/12/15 02:14:31;;;;;;;1999.90;999.90;;;-5.00;24.30;;;;;;5051583;28;20485;-67
2022/12/15 02:17:07;;;;;;;1999.90;999.90;;;-5.10;7.40;;;;;;5051618;28;20168;-67
2022/12/15 02:20:06;;;;;;;1999.90;999.90;;;-5.20;1.00;;;;;;5051674;28;20616;-68
2022/12/15 02:22:50;;;;;;;1999.90;999.90;;;-5.30;1.00;;;;;;5055564;28;20245;-68
2022/12/15 02:25:37;;;;;;;1999.90;999.90;;;-5.30;1.00;;;;;;5055488;28;20266;-68
2022/12/15 02:28:22;;;;;;;1999.90;999.90;;;-5.40;1.00;;;;;;5055383;28;20203;-68
2022/12/15 02:34:03;;;;;;;1999.90;999.90;;;-5.50;36.50;;;;;;5055758;28;20251;-68
2022/12/15 02:36:36;;;;;;;1999.90;999.90;;;-5.50;67.40;;;;;;5055243;28;20164;-68
2022/12/15 02:39:03;;;;;;;1999.90;999.90;;;-5.50;1.00;;;;;;5055214;28;20644;-68
2022/12/15 02:41:43;;;;;;;1999.90;999.90;;;-5.60;1.00;;;;;;5055183;28;20199;-68
2022/12/15 02:44:23;;;;;;;1999.90;999.90;;;-5.70;1.00;;;;;;5055241;28;20586;-68
2022/12/15 02:47:12;;;;;;;1999.90;999.90;;;-5.80;1.00;;;;;;5055018;28;20175;-68
2022/12/15 02:49:45;;;;;;;1999.90;999.90;;;-5.80;1.00;;;;;;5055203;28;20560;-68
2022/12/15 02:52:16;;;;;;;1999.90;999.90;;;-5.90;1.00;;;;;;5054976;28;20202;-68
2022/12/15 02:54:57;;;;;;;1999.90;999.90;;;-5.90;1.00;;;;;;5055153;28;20267;-68
2022/12/15 02:57:52;;;;;;;1999.90;999.90;;;-5.90;1.00;;;;;;5054743;28;20222;-68
2022/12/15 03:00:18;;;;;;;1999.90;999.90;;;-5.90;1.00;;;;;;5054998;28;20175;-68
2022/12/15 03:02:48;;;;;;;1999.90;999.90;;;-5.90;7.00;;;;;;5055255;28;20211;-68
2022/12/15 03:05:16;;;;;;;1999.90;999.90;;;-5.90;98.40;;;;;;5054858;28;20633;-68
2022/12/15 03:07:41;;;;;;;1999.90;999.90;;;-5.90;99.90;;;;;;5054421;28;20198;-68
2022/12/15 03:10:09;;;;;;;1999.90;999.90;;;-5.90;99.90;;;;;;5054791;28;20547;-68
2022/12/15 03:12:34;;;;;;;1999.90;999.90;;;-5.80;99.90;;;;;;5054613;28;20180;-68
2022/12/15 03:15:00;;;;;;;1999.90;999.90;;;-5.80;99.90;;;;;;5054665;28;20229;-68
2022/12/15 03:17:26;;;;;;;1999.90;999.90;;;-5.70;99.90;;;;;;5054257;28;20293;-68
2022/12/15 03:19:51;;;;;;;1999.90;999.90;;;-5.70;99.90;;;;;;5054469;28;20174;-68
2022/12/15 03:22:17;;;;;;;1999.90;999.90;;;-5.60;99.90;;;;;;5054602;28;20263;-68
2022/12/15 03:24:42;;;;;;;1999.90;999.90;;;-5.60;99.90;;;;;;5054480;28;20739;-68
2022/12/15 03:27:08;;;;;;;1999.90;999.90;;;-5.60;99.90;;;;;;5054099;28;20221;-68
2022/12/15 03:29:34;;;;;;;1999.90;999.90;;;-5.50;99.90;;;;;;5054278;28;20599;-68
2022/12/15 03:31:59;;;;;;;1999.90;999.90;;;-5.60;99.90;;;;;;5052706;28;20211;-68
2022/12/15 03:34:25;;;;;;;1999.90;999.90;;;-5.60;91.30;;;;;;5054243;28;20176;-68
2022/12/15 03:36:50;;;;;;;1999.90;999.90;;;-5.60;59.30;;;;;;5054867;28;20195;-68
2022/12/15 03:39:16;;;;;;;1999.90;999.90;;;-5.70;20.90;;;;;;5054692;28;20224;-68
2022/12/15 03:41:42;;;;;;;1999.90;999.90;;;-5.70;61.20;;;;;;5054885;28;20203;-68
2022/12/15 03:44:08;;;;;;;1999.90;999.90;;;-5.70;92.30;;;;;;5054886;28;20175;-68
2022/12/15 03:46:34;;;;;;;1999.90;999.90;;;-5.70;99.90;;;;;;5054469;28;20179;-68
2022/12/15 03:48:59;;;;;;;1999.90;999.90;;;-5.70;99.90;;;;;;5054424;28;20248;-67
2022/12/15 03:51:25;;;;;;;1999.90;999.90;;;-5.70;99.90;;;;;;5054589;28;20191;-67
2022/12/15 03:53:50;;;;;;;1999.90;999.90;;;-5.70;99.90;;;;;;5054499;28;20171;-67
2022/12/15 03:56:16;;;;;;;1999.90;999.90;;;-5.70;99.90;;;;;;5054150;28;20270;-68
2022/12/15 03:58:42;;;;;;;1999.90;999.90;;;-5.70;99.90;;;;;;5054397;28;20540;-68
2022/12/15 04:01:18;;;;;;;1999.90;999.90;;;-5.70;99.90;;;;;;5054085;28;20509;-68
2022/12/15 04:03:43;;;;;;;1999.90;999.90;;;-5.70;99.90;;;;;;5054079;28;20321;-68
2022/12/15 04:06:09;;;;;;;1999.90;999.90;;;-5.70;99.90;;;;;;5053913;28;20211;-68
2022/12/15 04:08:34;;;;;;;1999.90;999.90;;;-5.70;99.90;;;;;;5053807;28;20191;-67
2022/12/15 04:11:00;;;;;;;1999.90;999.90;;;-5.60;99.90;;;;;;5053917;28;20254;-68
2022/12/15 04:13:26;;;;;;;1999.90;999.90;;;-5.60;99.90;;;;;;5053768;28;20218;-68
2022/12/15 04:15:51;;;;;;;1999.90;999.90;;;-5.60;99.90;;;;;;5053805;28;20171;-67
2022/12/15 04:18:17;;;;;;;1999.90;999.90;;;-5.60;99.90;;;;;;5054325;28;20174;-67
2022/12/15 04:20:42;;;;;;;1999.90;999.90;;;-5.70;99.90;;;;;;5054028;28;20655;-68
2022/12/15 04:23:08;;;;;;;1999.90;999.90;;;-5.70;99.90;;;;;;5053994;28;20200;-68
2022/12/15 05:31:50;;;;;;;1999.90;999.90;;;-5.90;99.90;;;;;;5052386;28;20284;-69
2022/12/15 05:34:35;;;;;;;1999.90;999.90;;;-5.90;99.90;;;;;;5052455;28;20249;-68
2022/12/15 05:37:02;;;;;;;1999.90;999.90;;;-6.00;99.90;;;;;;5052682;28;20640;-67
2022/12/15 05:39:27;;;;;;;1999.90;999.90;;;-6.00;99.90;;;;;;5053447;28;20178;-67
2022/12/15 05:41:55;;;;;;;1999.90;999.90;;;-6.00;99.90;;;;;;5052956;28;20664;-67
2022/12/15 05:44:20;;;;;;;1999.90;999.90;;;-6.00;99.90;;;;;;5053088;28;20303;-69
2022/12/15 05:46:46;;;;;;;1999.90;999.90;;;-6.00;99.90;;;;;;5052831;28;20178;-69
2022/12/15 05:49:14;;;;;;;1999.90;999.90;;;-6.00;99.90;;;;;;5053724;28;20780;-69
2022/12/15 05:51:41;;;;;;;1999.90;999.90;;;-6.00;99.90;;;;;;5053685;28;20429;-69
2022/12/15 05:54:09;;;;;;;1999.90;999.90;;;-6.00;99.90;;;;;;5052837;28;20214;-69
2022/12/15 05:56:35;;;;;;;1999.90;999.90;;;-5.90;99.90;;;;;;5053257;28;20648;-69
2022/12/15 05:59:01;;;;;;;1999.90;999.90;;;-5.90;99.90;;;;;;5053392;28;20183;-69
2022/12/15 06:01:27;;;;;;;1999.90;999.90;;;-5.90;99.90;;;;;;5053310;28;20434;-69
2022/12/15 06:03:53;;;;;;;1999.90;999.90;;;-5.90;99.90;;;;;;5053144;28;20183;-69
2022/12/15 06:06:19;;;;;;;1999.90;999.90;;;-5.90;99.90;;;;;;5052958;28;20262;-69
2022/12/15 06:08:45;;;;;;;1999.90;999.90;;;-5.90;99.90;;;;;;5052798;28;20199;-69
2022/12/15 06:11:13;;;;;;;1999.90;999.90;;;-6.00;99.90;;;;;;5053264;28;20203;-69
2022/12/15 06:13:38;;;;;;;1999.90;999.90;;;-6.00;99.90;;;;;;5053208;28;20175;-69
2022/12/15 06:16:18;;;;;;;1999.90;999.90;;;-6.00;99.90;;;;;;5052859;28;20583;-68
2022/12/15 06:18:49;;;;;;;1999.90;999.90;;;-6.00;99.90;;;;;;5052499;28;20413;-69
2022/12/15 06:21:18;;;;;;;1999.90;999.90;;;-6.00;99.90;;;;;;5053088;28;20195;-69
2022/12/15 06:23:44;;;;;;;1999.90;999.90;;;-6.00;99.90;;;;;;5052870;28;20174;-69
2022/12/15 06:26:19;;;;;;;1999.90;999.90;;;-6.00;99.90;;;;;;5052758;28;20171;-69
2022/12/15 06:28:45;;;;;;;1999.90;999.90;;;-5.90;99.90;;;;;;5052281;28;20278;-68
2022/12/15 06:31:12;;;;;;;1999.90;999.90;;;-5.90;99.90;;;;;;5052577;28;20207;-69
2022/12/15 06:33:38;;;;;;;1999.90;999.90;;;-6.00;99.90;;;;;;5052340;28;20790;-69
2022/12/15 06:36:09;;;;;;;1999.90;999.90;;;-6.00;99.90;;;;;;5052748;28;20176;-69
2022/12/15 06:38:36;;;;;;;1999.90;999.90;;;-6.10;99.90;;;;;;5052219;28;20194;-69
2022/12/15 06:41:04;;;;;;;1999.90;999.90;;;-6.00;99.90;;;;;;5052564;28;20194;-69
2022/12/15 06:43:30;;;;;;;1999.90;999.90;;;-6.10;99.90;;;;;;5051859;28;20172;-69
2022/12/15 06:45:56;;;;;;;1999.90;999.90;;;-6.10;99.90;;;;;;5051238;28;20171;-69
2022/12/15 06:48:22;;;;;;;1999.90;999.90;;;-6.10;99.90;;;;;;5051187;28;20248;-69
2022/12/15 06:50:48;;;;;;;1999.90;999.90;;;-6.10;99.90;;;;;;5051390;28;20168;-69
2022/12/15 06:53:16;;;;;;;1999.90;999.90;;;-6.00;99.90;;;;;;5051522;28;20164;-69
2022/12/15 06:55:42;;;;;;;1999.90;999.90;;;-6.10;99.90;;;;;;5051243;28;20692;-69
2022/12/15 06:58:09;;;;;;;1999.90;999.90;;;-6.10;99.90;;;;;;5051018;28;20203;-69
2022/12/15 07:00:35;;;;;;;1999.90;999.90;;;-6.10;99.90;;;;;;5051170;28;20253;-69
2022/12/15 07:03:02;;;;;;;1999.90;999.90;;;-6.10;99.90;;;;;;5053238;28;20187;-69
2022/12/15 07:05:27;;;;;;;1999.90;999.90;;;-6.10;99.90;;;;;;5053857;28;20180;-69
2022/12/15 07:07:53;;;;;;;1999.90;999.90;;;-6.10;99.90;;;;;;5056592;28;20226;-69
2022/12/15 07:10:18;;;;;;;1999.90;999.90;;;-6.20;99.90;;;;;;5056401;28;20163;-69
2022/12/15 07:12:44;;;;;;;1999.90;999.90;;;-6.20;99.90;;;;;;5056090;28;20196;-69
2022/12/15 07:15:10;;;;;;;1999.90;999.90;;;-6.20;99.90;;;;;;5056410;28;20193;-69
2022/12/15 07:17:36;;;;;;;1999.90;999.90;;;-6.10;99.90;;;;;;5055961;28;20171;-68
2022/12/15 07:20:04;;;;;;;1999.90;999.90;;;-6.20;99.90;;;;;;5056704;28;20410;-69
2022/12/15 07:22:29;;;;;;;1999.90;999.90;;;-6.20;99.90;;;;;;5056474;28;20425;-69
2022/12/15 07:24:55;;;;;;;1999.90;999.90;;;-6.20;99.90;;;;;;5056242;28;20175;-69
2022/12/15 07:27:20;;;;;;;1999.90;999.90;;;-6.10;99.90;;;;;;5054918;28;20238;-69
2022/12/15 07:29:46;;;;;;;1999.90;999.90;;;-6.10;99.90;;;;;;5054763;28;20160;-69
2022/12/15 07:32:11;;;;;;;1999.90;999.90;;;-6.10;99.90;;;;;;5054737;28;20203;-69
2022/12/15 07:34:37;;;;;;;1999.90;999.90;;;-6.10;99.90;;;;;;5054788;28;20178;-69
2022/12/15 07:37:03;;;;;;;1999.90;999.90;;;-6.10;99.90;;;;;;5054410;28;20164;-69
2022/12/15 07:39:28;;;;;;;1999.90;999.90;;;-6.00;99.90;;;;;;5054471;28;20175;-69
2022/12/15 07:41:54;;;;;;;1999.90;999.90;;;-6.00;99.90;;;;;;5054463;28;20196;-69
2022/12/15 07:44:19;;;;;;;1999.90;999.90;;;-6.00;99.90;;;;;;5054598;28;20164;-69
2022/12/15 07:46:47;;;;;;;1999.90;999.90;;;-6.10;99.90;;;;;;5054367;28;20645;-69
2022/12/15 07:49:14;;;;;;;1999.90;999.90;;;-6.00;99.90;;;;;;5054489;28;20200;-69
2022/12/15 07:51:40;;;;;;;1999.90;999.90;;;-6.00;99.90;;;;;;5054307;28;20188;-69
2022/12/15 07:54:05;;;;;;;1999.90;999.90;;;-6.00;99.90;;;;;;5054368;28;20171;-69
2022/12/15 07:56:31;;;;;;;1999.90;999.90;;;-6.00;99.90;;;;;;5054160;28;20724;-69
2022/12/15 07:58:57;;;;;;;1999.90;999.90;;;-6.00;99.90;;;;;;5054157;28;20178;-69
2022/12/15 08:01:23;;;;;;;1999.90;999.90;;;-6.00;99.90;;;;;;5054370;28;20619;-69
2022/12/15 08:03:49;;;;;;;1999.90;999.90;;;-5.90;99.90;;;;;;5054183;28;20586;-69
2022/12/15 08:06:14;;;;;;;1999.90;999.90;;;-5.80;99.90;;;;;;5054142;28;20164;-69
2022/12/15 08:08:42;;;;;;;1999.90;999.90;;;-5.80;99.90;;;;;;5054250;28;20215;-69
2022/12/15 08:11:10;;;;;;;1999.90;999.90;;;-5.80;99.90;;;;;;5054512;28;20787;-69
2022/12/15 08:13:37;;;;;;;1999.90;999.90;;;-5.80;99.90;;;;;;5054181;28;20251;-69
2022/12/15 08:16:02;;;;;;;1999.90;999.90;;;-5.70;99.90;;;;;;5054093;28;20176;-69
2022/12/15 08:18:28;;;;;;;1999.90;999.90;;;-5.70;99.90;;;;;;5053008;28;20176;-69
2022/12/15 08:20:54;;;;;;;1999.90;999.90;;;-5.70;99.90;;;;;;5053962;28;20190;-69
2022/12/15 08:23:19;;;;;;;1999.90;999.90;;;-5.50;99.90;;;;;;5054022;28;20266;-69
2022/12/15 08:25:45;;;;;;;1999.90;999.90;;;-5.50;99.90;;;;;;5053780;28;20406;-69
2022/12/15 08:28:11;;;;;;;1999.90;999.90;;;-5.40;99.90;;;;;;5053595;28;20266;-69
2022/12/15 08:30:37;;;;;;;1999.90;999.90;;;-5.40;99.90;;;;;;5053923;28;20172;-69
2022/12/15 08:33:02;;;;;;;1999.90;999.90;;;-5.30;99.90;;;;;;5053613;28;20211;-69
2022/12/15 08:35:28;;;;;;;1999.90;999.90;;;-5.20;99.90;;;;;;5053893;28;20248;-69
2022/12/15 08:37:54;;;;;;;1999.90;999.90;;;-5.10;99.90;;;;;;5053357;28;20241;-69
2022/12/15 08:40:19;;;;;;;1999.90;999.90;;;-5.00;99.90;;;;;;5053585;28;20468;-69
2022/12/15 08:42:45;;;;;;;1999.90;999.90;;;-4.80;99.90;;;;;;5053749;28;20187;-69
2022/12/15 08:45:11;;;;;;;1999.90;999.90;;;-4.80;99.90;;;;;;5053894;28;20626;-69
2022/12/15 08:47:38;;;;;;;1999.90;999.90;;;-4.70;99.90;;;;;;5053612;28;20191;-69
2022/12/15 08:50:08;;;;;;;1999.90;999.90;;;-4.60;99.90;;;;;;5053545;28;20167;-69
2022/12/15 08:52:34;;;;;;;1999.90;999.90;;;-4.50;99.90;;;;;;5053511;28;20688;-69
2022/12/15 08:54:59;;;;;;;1999.90;999.90;;;-4.40;99.90;;;;;;5052977;28;20180;-69
2022/12/15 08:57:26;;;;;;;1999.90;999.90;;;-4.40;99.90;;;;;;5052807;28;20175;-69
2022/12/15 08:59:51;;;;;;;1999.90;999.90;;;-4.20;99.90;;;;;;5052891;28;20176;-69
2022/12/15 09:02:17;;;;;;;1999.90;999.90;;;-4.20;99.90;;;;;;5052775;28;20196;-69
2022/12/15 09:04:44;;;;;;;1999.90;999.90;;;-4.10;99.90;;;;;;5052786;28;20629;-69
2022/12/15 09:07:10;;;;;;;1999.90;999.90;;;-4.00;99.90;;;;;;5044909;28;20176;-69
2022/12/15 09:09:36;;;;;;;1999.90;999.90;;;-3.90;99.90;;;;;;5049677;28;20203;-69
2022/12/15 09:12:02;;;;;;;1999.90;999.90;;;-3.80;99.90;;;;;;5050288;28;20620;-69
2022/12/15 09:14:28;;;;;;;1999.90;999.90;;;-3.80;99.90;;;;;;5050825;28;20168;-69
2022/12/15 09:16:54;;;;;;;1999.90;999.90;;;-3.80;99.90;;;;;;5049531;28;20186;-69
2022/12/15 09:19:19;;;;;;;1999.90;999.90;;;-3.70;99.90;;;;;;5050644;28;20172;-69
2022/12/15 09:21:45;;;;;;;1999.90;999.90;;;-3.70;46.60;;;;;;5050964;28;20219;-68
2022/12/15 09:24:12;;;;;;;1999.90;999.90;;;-3.70;99.90;;;;;;5051201;28;20174;-68
2022/12/15 09:26:39;;;;;;;1999.90;999.90;;;-3.70;99.90;;;;;;5050962;28;20179;-69
2022/12/15 09:29:05;;;;;;;1999.90;999.90;;;-3.70;99.90;;;;;;5049229;28;20208;-69
2022/12/15 09:31:35;;;;;;;1999.90;999.90;;;-3.70;99.90;;;;;;5050938;28;20214;-69
2022/12/15 09:34:01;;;;;;;1999.90;999.90;;;-3.50;99.90;;;;;;5051285;28;20175;-69
2022/12/15 09:36:29;;;;;;;1999.90;999.90;;;-3.40;99.90;;;;;;5050896;28;20180;-70
2022/12/15 09:38:54;;;;;;;1999.90;999.90;;;-3.40;99.90;;;;;;5049608;28;20414;-69
2022/12/15 09:41:27;;;;;;;1999.90;999.90;;;-3.30;99.90;;;;;;5050990;28;20200;-69
2022/12/15 09:44:13;;;;;;;1999.90;999.90;;;-3.30;99.90;;;;;;5050998;28;20279;-69
2022/12/15 09:47:04;;;;;;;1999.90;999.90;;;-3.30;99.90;;;;;;5050723;28;20258;-69
2022/12/15 09:49:42;;;;;;;1999.90;999.90;;;-3.10;99.90;;;;;;5050547;28;20702;-69
2022/12/15 09:52:14;;;;;;;1999.90;999.90;;;-3.00;99.90;;;;;;5050782;28;20195;-69
2022/12/15 09:54:42;;;;;;;1999.90;999.90;;;-3.00;1.00;;;;;;5050958;28;20641;-69
2022/12/15 09:57:41;;;;;;;1999.90;999.90;;;-3.00;1.00;;;;;;5050009;28;20163;-68
2022/12/15 10:00:14;;;;;;;1999.90;999.90;;;-2.90;51.10;;;;;;5018977;28;20171;-68
2022/12/15 10:03:10;;;;;;;1999.90;999.90;;;-2.70;20.30;;;;;;5050678;28;20195;-68
2022/12/15 10:06:00;;;;;;;1999.90;999.90;;;-2.60;1.00;;;;;;5050559;28;20174;-68
2022/12/15 10:08:31;;;;;;;1999.90;999.90;;;-2.60;1.00;;;;;;5049439;28;20195;-68
2022/12/15 10:11:00;;;;;;;1999.90;999.90;;;-2.50;1.00;;;;;;5050469;28;20171;-68
2022/12/15 10:14:02;;;;;;;1999.90;999.90;;;-2.50;1.00;;;;;;5050590;28;20171;-68
2022/12/15 10:16:35;;;;;;;1999.90;999.90;;;-2.40;1.00;;;;;;5049147;28;20241;-68
2022/12/15 10:19:12;;;;;;;1999.90;999.90;;;-2.30;1.00;;;;;;5049688;28;20263;-69
2022/12/15 10:21:38;;;;;;;1999.90;999.90;;;-2.30;99.90;;;;;;5050462;28;20218;-69
2022/12/15 10:24:11;;;;;;;1999.90;999.90;;;-2.30;99.90;;;;;;5050501;28;20203;-68
2022/12/15 10:26:38;;;;;;;1999.90;999.90;;;-2.30;48.20;;;;;;5050194;28;20406;-68
2022/12/15 10:29:13;;;;;;;1999.90;999.90;;;-2.30;99.90;;;;;;5049601;28;20191;-69
2022/12/15 10:32:19;;;;;;;1999.90;999.90;;;-2.20;99.90;;;;;;5050271;28;20218;-68
2022/12/15 10:34:45;;;;;;;1999.90;999.90;;;-2.10;99.90;;;;;;4969299;28;20301;-69
2022/12/15 10:37:17;;;;;;;1999.90;999.90;;;-2.00;99.90;;;;;;5035873;28;20199;-69
2022/12/15 10:39:45;;;;;;;1999.90;999.90;;;-1.90;92.60;;;;;;5050066;28;20535;-68
2022/12/15 10:42:11;;;;;;;1999.90;999.90;;;-1.80;99.90;;;;;;5053062;28;20183;-69
2022/12/15 10:44:40;;;;;;;1999.90;999.90;;;-1.70;99.90;;;;;;5054240;28;20663;-69
2022/12/15 10:47:30;;;;;;;1999.90;999.90;;;-1.60;71.50;;;;;;5053353;28;20182;-69
2022/12/15 10:50:20;;;;;;;1999.90;999.90;;;-1.50;11.60;;;;;;5043969;28;20190;-69
2022/12/15 10:52:46;;;;;;;1999.90;999.90;;;-1.30;1.00;;;;;;5054059;28;20650;-69
2022/12/15 10:55:31;;;;;;;1999.90;999.90;;;-1.20;64.20;;;;;;5054098;28;20237;-68
2022/12/15 10:58:01;;;;;;;1999.90;999.90;;;-1.10;99.90;;;;;;5053549;28;20266;-69
2022/12/15 11:00:31;;;;;;;1999.90;999.90;;;-1.00;1.00;;;;;;5053723;28;20174;-69
2022/12/15 11:02:57;;;;;;;1999.90;999.90;;;-0.80;99.90;;;;;;5053919;28;20215;-69
2022/12/15 11:05:22;;;;;;;1999.90;999.90;;;-0.80;1.00;;;;;;5054015;28;20182;-69
2022/12/15 11:07:54;;;;;;;1999.90;999.90;;;-0.80;1.00;;;;;;5053025;28;20697;-69
2022/12/15 11:10:19;;;;;;;1999.90;999.90;;;-0.80;99.90;;;;;;5053501;28;20174;-69
2022/12/15 11:13:00;;;;;;;1999.90;999.90;;;-0.60;99.90;;;;;;5053586;28;20187;-69
2022/12/15 11:15:31;;;;;;;1999.90;999.90;;;-0.30;99.90;;;;;;5053708;28;20535;-69
2022/12/15 11:17:59;;;;;;;1999.90;999.90;;;0.10;99.90;;;;;;5055293;28;20171;-69
2022/12/15 11:20:37;;;;;;;1999.90;999.90;;;0.40;1.00;;;;;;5055252;28;20174;-69
2022/12/15 11:23:26;;;;;;;1999.90;999.90;;;0.80;99.90;;;;;;5056670;28;20183;-69
2022/12/15 11:25:59;;;;;;;1999.90;999.90;;;1.30;99.90;;;;;;5016992;28;20218;-68
2022/12/15 11:28:44;;;;;;;1999.90;999.90;;;1.80;1.00;;;;;;5056212;28;20567;-68
2022/12/15 11:31:37;;;;;;;1999.90;999.90;;;2.10;99.90;;;;;;5056060;28;20227;-68
2022/12/15 11:34:14;;;;;;;1999.90;999.90;;;2.50;75.80;;;;;;5053413;28;20210;-68
2022/12/15 11:36:39;;;;;;;1999.90;999.90;;;2.80;1.00;;;;;;5064542;28;20147;-67
2022/12/15 11:39:31;;;;;;;1999.90;999.90;;;3.10;1.00;;;;;;5066890;28;20218;-67
2022/12/15 11:42:01;;;;;;;1999.90;999.90;;;3.40;1.00;;;;;;5056024;28;20195;-69
2022/12/15 11:44:32;;;;;;;1999.90;999.90;;;3.80;1.00;;;;;;5054343;28;20168;-69
2022/12/15 11:47:19;;;;;;;1999.90;999.90;;;4.00;99.90;;;;;;5054156;28;20896;-69
2022/12/15 11:50:12;;;;;;;1999.90;999.90;;;3.90;99.90;;;;;;5054150;28;20441;-69
2022/12/15 11:52:45;;;;;;;1999.90;999.90;;;4.20;99.90;;;;;;5041773;28;20932;-69
2022/12/15 11:55:29;;;;;;;1999.90;999.90;;;4.80;1.00;;;;;;5053910;28;20433;-69
2022/12/15 11:58:21;;;;;;;1999.90;999.90;;;5.10;99.90;;;;;;5053726;28;20398;-69
2022/12/15 12:01:03;;;;;;;1999.90;999.90;;;5.10;99.90;;;;;;5053959;28;20399;-69
2022/12/15 12:03:34;;;;;;;1999.90;999.90;;;5.20;99.90;;;;;;5053744;28;20390;-69
2022/12/15 12:06:33;;;;;;;1999.90;999.90;;;5.30;99.90;;;;;;5053753;28;20398;-69
2022/12/15 12:09:11;;;;;;;1999.90;999.90;;;5.70;99.90;;;;;;5053546;28;20445;-69
2022/12/15 12:11:53;;;;;;;1999.90;999.90;;;6.60;99.90;;;;;;5053781;28;20414;-69
2022/12/15 12:14:26;;;;;;;1999.90;999.90;;;7.40;99.90;;;;;;5053681;28;20479;-69
2022/12/15 12:17:21;;;;;;;1999.90;999.90;;;7.50;99.90;;;;;;5053344;28;20907;-69
2022/12/15 12:19:56;;;;;;;1999.90;999.90;;;7.90;99.90;;;;;;5053782;28;20400;-69
2022/12/15 12:22:31;;;;;;;1999.90;999.90;;;8.00;99.90;;;;;;5053626;28;20414;-69
2022/12/15 12:25:04;;;;;;;1999.90;999.90;;;7.70;99.90;;;;;;5053352;28;20774;-69
2022/12/15 12:27:35;;;;;;;1999.90;999.90;;;7.50;99.90;;;;;;5053738;28;20407;-68
2022/12/15 12:30:13;;;;;;;1999.90;999.90;;;7.60;99.90;;;;;;5054528;28;20398;-68
2022/12/15 12:32:47;;;;;;;1999.90;999.90;;;7.80;99.90;;;;;;5053895;28;20452;-68
2022/12/15 12:35:31;;;;;;;1999.90;999.90;;;8.00;99.90;;;;;;5054346;28;20406;-68
2022/12/15 12:38:05;;;;;;;1999.90;999.90;;;8.00;99.90;;;;;;5054072;28;20400;-68
2022/12/15 12:40:39;;;;;;;1999.90;999.90;;;8.00;99.90;;;;;;5054312;28;20410;-68
2022/12/15 12:43:10;;;;;;;1999.90;999.90;;;8.20;99.90;;;;;;5053995;28;20432;-68
2022/12/15 12:46:01;;;;;;;1999.90;999.90;;;8.60;99.90;;;;;;5053957;28;20410;-68
2022/12/15 12:48:36;;;;;;;1999.90;999.90;;;9.10;99.90;;;;;;5039154;28;20873;-68
2022/12/15 12:51:21;;;;;;;1999.90;999.90;;;9.70;99.90;;;;;;5053672;28;20413;-68
2022/12/15 12:53:48;;;;;;;1999.90;999.90;;;10.20;99.90;;;;;;5053594;28;20416;-68
2022/12/15 12:56:38;;;;;;;1999.90;999.90;;;10.50;99.90;;;;;;5053617;28;20410;-68
2022/12/15 12:59:25;;;;;;;1999.90;999.90;;;10.80;99.90;;;;;;5053675;28;20508;-68
2022/12/15 13:01:50;;;;;;;1999.90;999.90;;;10.80;99.90;;;;;;5053222;28;20441;-68
2022/12/15 13:04:28;;;;;;;1999.90;999.90;;;10.90;99.90;;;;;;5053065;28;20409;-68
2022/12/15 13:06:55;;;;;;;1999.90;999.90;;;11.20;99.90;;;;;;5053035;28;20183;-68
2022/12/15 13:09:24;;;;;;;1999.90;999.90;;;11.30;99.90;;;;;;5054143;28;20511;-69
2022/12/15 13:11:54;;;;;;;1999.90;999.90;;;11.60;99.90;;;;;;5054064;28;20426;-68
2022/12/15 13:14:24;;;;;;;1999.90;999.90;;;11.70;99.90;;;;;;5053345;28;20390;-68
2022/12/15 13:16:55;;;;;;;1999.90;999.90;;;11.80;99.90;;;;;;5053362;28;20701;-68
2022/12/15 13:19:55;;;;;;;1999.90;999.90;;;11.90;99.90;;;;;;5053054;28;20785;-69
2022/12/15 13:22:32;;;;;;;1999.90;999.90;;;12.10;99.90;;;;;;5053065;28;20423;-69
2022/12/15 13:24:59;;;;;;;1999.90;999.90;;;12.00;99.90;;;;;;5052987;28;20485;-68
2022/12/15 13:27:35;;;;;;;1999.90;999.90;;;11.90;99.90;;;;;;5052521;28;20405;-69
2022/12/15 13:30:06;;;;;;;1999.90;999.90;;;11.70;99.90;;;;;;5052964;28;20968;-69
2022/12/15 13:32:42;;;;;;;1999.90;999.90;;;11.60;99.90;;;;;;5052460;28;21174;-69
2022/12/15 13:35:13;;;;;;;1999.90;999.90;;;11.30;99.90;;;;;;5052979;28;20413;-69
2022/12/15 13:38:02;;;;;;;1999.90;999.90;;;11.20;99.90;;;;;;5052116;28;20406;-68
2022/12/15 13:40:33;;;;;;;1999.90;999.90;;;10.90;99.90;;;;;;5052546;28;20493;-68
2022/12/15 13:43:04;;;;;;;1999.90;999.90;;;10.50;99.90;;;;;;5052593;28;20421;-68
2022/12/15 13:45:41;;;;;;;1999.90;999.90;;;10.40;99.90;;;;;;5048641;28;20513;-68
2022/12/15 13:48:26;;;;;;;1999.90;999.90;;;10.20;99.90;;;;;;5052683;28;20445;-69
2022/12/15 13:51:08;;;;;;;1999.90;999.90;;;10.30;99.90;;;;;;5053430;28;20425;-67
2022/12/15 13:53:58;;;;;;;1999.90;999.90;;;10.00;99.90;;;;;;5055477;28;20447;-68
2022/12/15 13:56:49;;;;;;;1999.90;999.90;;;9.90;99.90;;;;;;5053322;28;20409;-68
2022/12/15 13:59:47;;;;;;;1999.90;999.90;;;10.10;99.90;;;;;;5050800;28;20792;-68
2022/12/15 14:02:27;;;;;;;1999.90;999.90;;;10.00;99.90;;;;;;5051421;28;20977;-66
2022/12/15 14:05:11;;;;;;;1999.90;999.90;;;10.00;99.90;;;;;;5051771;28;20775;-67
2022/12/15 14:07:38;;;;;;;1999.90;999.90;;;10.00;99.90;;;;;;5055403;28;20409;-66
2022/12/15 14:10:14;;;;;;;1999.90;999.90;;;10.10;99.90;;;;;;5058135;28;20488;-66
2022/12/15 14:12:41;;;;;;;1999.90;999.90;;;10.30;99.90;;;;;;5056831;28;20534;-69
2022/12/15 14:15:13;;;;;;;1999.90;999.90;;;10.50;99.90;;;;;;5056524;28;20396;-69
2022/12/15 14:17:39;;;;;;;1999.90;999.90;;;10.60;99.90;;;;;;5055514;28;20448;-69
2022/12/15 14:20:16;;;;;;;1999.90;999.90;;;10.90;99.90;;;;;;5056752;28;20930;-69
2022/12/15 14:22:42;;;;;;;1999.90;999.90;;;10.90;99.90;;;;;;5038721;28;20198;-69
2022/12/15 14:25:19;;;;;;;1999.90;999.90;;;10.70;99.90;;;;;;5056304;28;20974;-69
2022/12/15 14:27:45;;;;;;;1999.90;999.90;;;10.50;99.90;;;;;;5055478;28;20178;-68
2022/12/15 14:30:16;;;;;;;1999.90;999.90;;;10.30;99.90;;;;;;5056249;28;20393;-68
2022/12/15 14:32:44;;;;;;;1999.90;999.90;;;10.20;99.90;;;;;;5051681;28;21205;-69
2022/12/15 14:35:42;;;;;;;1999.90;999.90;;;9.70;99.90;;;;;;5054377;28;20406;-67
2022/12/15 14:38:16;;;;;;;1999.90;999.90;;;9.30;99.90;;;;;;5048420;28;20427;-69
2022/12/15 14:40:45;;;;;;;1999.90;999.90;;;8.90;99.90;;;;;;5054221;28;20471;-67
2022/12/15 14:43:20;;;;;;;1999.90;999.90;;;8.80;99.90;;;;;;5055717;28;20490;-69
2022/12/15 14:45:55;;;;;;;1999.90;999.90;;;8.20;99.90;;;;;;5056847;28;20457;-69